Moratuwa, Sri Lanka
Current Conditions -  °F | °C
As of 6:10 AM on Monday 22 Dec 2014 (Local Time) from VCBI Reporting Station
Overcast Overcast  
Wind Chill: 73°   Ceiling: 8000
Heat Index: 73°   Visibility: 5mi
Dew Point: 72°   Wind: 6mph
Humidity: 94%   Direction: 20°NNE
Pressure: 29.77"   Gusts: NA
Location:  6.81°N, 79.88°E
Report Text: VCBI 220010Z 02005KT 8000 SCT016 OVC080 23/22 Q1008 NOSIG
Loading
Personal Weather Stations






























Interactive Weather Map New forecast layout! Learn more

10-Day Weather Forecast

Advertisements
Track Severe Weather on mobile